createdAt,value
2018-04-25T00:01:39.910Z,71.00
2018-04-25T00:04:08.885Z,71.20
2018-04-25T00:06:37.006Z,71.10
2018-04-25T00:09:05.239Z,71.60
2018-04-25T00:11:34.142Z,71.50
2018-04-25T00:14:02.275Z,71.40
2018-04-25T00:16:30.403Z,71.20
2018-04-25T00:18:58.539Z,71.40
2018-04-25T00:21:27.419Z,72.50
2018-04-25T00:23:56.328Z,71.60
2018-04-25T00:26:24.492Z,71.50
2018-04-25T00:28:53.409Z,71.40
2018-04-25T00:31:21.554Z,71.30
2018-04-25T00:33:50.445Z,71.80
2018-04-25T00:36:19.363Z,72.10
2018-04-25T00:38:47.486Z,72.00
2018-04-25T00:41:15.682Z,72.30
2018-04-25T00:43:44.582Z,72.70
2018-04-25T00:46:13.564Z,72.70
2018-04-25T00:48:42.550Z,73.00
2018-04-25T00:51:11.452Z,73.20
2018-04-25T00:53:39.609Z,73.10
2018-04-25T00:56:08.507Z,74.40
2018-04-25T00:58:36.640Z,73.60
2018-04-25T01:01:04.845Z,74.20
2018-04-25T01:03:33.740Z,74.70
2018-04-25T01:06:03.555Z,74.60
2018-04-25T01:08:32.528Z,74.90
2018-04-25T01:11:00.723Z,74.90
2018-04-25T01:13:29.704Z,75.00
2018-04-25T01:15:58.588Z,75.40
2018-04-25T01:18:27.480Z,75.30
2018-04-25T01:20:57.225Z,75.40
2018-04-25T01:23:25.360Z,75.40
2018-04-25T01:26:01.320Z,76.10
2018-04-25T01:28:30.299Z,76.00
2018-04-25T01:31:00.606Z,76.20
2018-04-25T01:33:41.432Z,76.10
2018-04-25T01:36:13.159Z,76.40
2018-04-25T01:38:51.252Z,76.70
2018-04-25T01:41:20.752Z,77.00
2018-04-25T01:43:50.571Z,77.30
2018-04-25T01:46:20.305Z,77.50
2018-04-25T01:52:03.540Z,77.50
2018-04-25T01:54:43.504Z,78.10
2018-04-25T01:57:23.471Z,78.40
2018-04-25T02:00:03.371Z,78.40
2018-04-25T02:02:31.842Z,78.60
2018-04-25T02:05:00.734Z,78.70
2018-04-25T02:07:29.630Z,78.80
2018-04-25T02:09:57.753Z,78.80
2018-04-25T02:12:25.887Z,78.80
2018-04-25T02:14:54.016Z,78.80
2018-04-25T02:17:22.206Z,78.90
2018-04-25T02:19:51.107Z,79.00
2018-04-25T02:22:20.091Z,78.90
2018-04-25T02:24:48.976Z,78.80
2018-04-25T02:27:17.868Z,78.60
2018-04-25T02:29:46.763Z,78.50
2018-04-25T02:32:15.656Z,78.50
2018-04-25T02:34:44.639Z,78.30
2018-04-25T02:37:13.607Z,78.30
2018-04-25T02:39:41.820Z,78.30
2018-04-25T02:42:10.703Z,78.40
2018-04-25T02:44:38.846Z,78.40
2018-04-25T02:47:06.964Z,78.20
2018-04-25T02:49:35.103Z,78.30
2018-04-25T02:52:03.258Z,78.20
2018-04-25T02:54:31.455Z,78.20
2018-04-25T02:57:00.366Z,78.30
2018-04-25T02:59:28.507Z,78.30
2018-04-25T03:01:57.447Z,78.40
2018-04-25T03:04:25.611Z,78.40
2018-04-25T03:06:53.758Z,78.50
2018-04-25T03:09:22.663Z,78.50
2018-04-25T03:11:51.818Z,78.40
2018-04-25T03:14:19.952Z,78.50
2018-04-25T03:16:48.108Z,78.40
2018-04-25T03:19:16.246Z,78.50
2018-04-25T03:21:45.241Z,78.50
2018-04-25T03:24:14.143Z,78.40
2018-04-25T03:26:42.255Z,78.40
2018-04-25T03:29:10.394Z,78.10
2018-04-25T03:31:38.516Z,78.30
2018-04-25T03:34:06.723Z,78.20
2018-04-25T03:36:35.591Z,78.50
2018-04-25T03:39:04.488Z,78.80
2018-04-25T03:41:33.388Z,78.40
2018-04-25T03:44:02.309Z,78.30
2018-04-25T03:46:30.454Z,78.30
2018-04-25T03:48:59.357Z,78.30
2018-04-25T03:51:27.511Z,78.30
2018-04-25T03:53:56.397Z,78.30
2018-04-25T03:56:25.296Z,78.20
2018-04-25T03:58:53.432Z,78.20
2018-04-25T04:01:21.636Z,78.10
2018-04-25T04:03:50.524Z,78.00
2018-04-25T04:06:19.047Z,77.90
2018-04-25T04:08:47.179Z,78.00
2018-04-25T04:11:15.313Z,77.70
2018-04-25T04:13:43.519Z,77.90
2018-04-25T04:16:11.670Z,77.80
2018-04-25T04:18:39.787Z,77.80
2018-04-25T04:21:07.931Z,77.90
2018-04-25T04:23:36.053Z,77.80
2018-04-25T04:26:04.182Z,78.00
2018-04-25T04:28:33.168Z,78.30
2018-04-25T04:31:02.055Z,78.20
2018-04-25T04:33:31.039Z,78.00
2018-04-25T04:35:59.925Z,78.30
2018-04-25T04:38:28.814Z,78.20
2018-04-25T04:40:57.826Z,78.30
2018-04-25T04:43:25.951Z,78.30
2018-04-25T04:45:54.093Z,78.30
2018-04-25T04:48:22.232Z,78.20
2018-04-25T04:50:51.216Z,78.10
2018-04-25T04:53:20.167Z,78.00
2018-04-25T04:55:48.308Z,78.00
2018-04-25T04:58:16.442Z,78.10
2018-04-25T05:00:44.577Z,77.90
2018-04-25T05:03:12.719Z,77.80
2018-04-25T05:05:40.848Z,77.60
2018-04-25T05:08:08.979Z,77.30
2018-04-25T05:10:37.254Z,77.30
2018-04-25T05:13:05.504Z,77.00
2018-04-25T05:15:33.575Z,76.80
2018-04-25T05:18:02.559Z,76.50
2018-04-25T05:20:30.708Z,76.50
2018-04-25T05:22:58.827Z,76.50
2018-04-25T05:25:26.959Z,76.40
2018-04-25T05:27:55.855Z,76.20
2018-04-25T05:30:24.838Z,76.10
2018-04-25T05:32:53.810Z,76.20
2018-04-25T05:35:21.924Z,76.20
2018-04-25T05:37:50.064Z,76.10
2018-04-25T05:40:18.971Z,75.50
2018-04-25T05:42:47.964Z,75.30
2018-04-25T05:45:16.867Z,74.90
2018-04-25T05:47:45.010Z,74.90
2018-04-25T05:50:13.919Z,74.20
2018-04-25T05:52:42.071Z,74.20
2018-04-25T05:55:10.195Z,72.90
2018-04-25T05:57:38.336Z,71.70
2018-04-25T06:00:06.461Z,71.20
2018-04-25T06:02:34.580Z,70.70
2018-04-25T06:05:02.717Z,70.90
2018-04-25T06:07:30.930Z,71.00
2018-04-25T06:09:59.085Z,71.20
2018-04-25T06:12:27.259Z,71.30
2018-04-25T06:14:56.164Z,69.60
2018-04-25T06:17:24.291Z,69.60
2018-04-25T06:19:52.406Z,69.20
2018-04-25T06:22:20.559Z,68.70
2018-04-25T06:24:49.454Z,67.60
2018-04-25T06:27:18.447Z,67.30
2018-04-25T06:29:46.695Z,67.20
2018-04-25T06:32:14.886Z,66.80
2018-04-25T06:34:43.878Z,65.50
2018-04-25T06:37:12.767Z,65.00
2018-04-25T06:39:41.679Z,64.50
2018-04-25T06:42:09.799Z,64.50
2018-04-25T06:44:38.041Z,64.60
2018-04-25T06:47:06.141Z,65.00
2018-04-25T06:49:35.788Z,63.70
2018-04-25T06:52:04.687Z,63.30
2018-04-25T06:54:32.816Z,63.20
2018-04-25T06:57:00.930Z,62.60
2018-04-25T06:59:29.091Z,62.50
2018-04-25T07:01:57.996Z,61.90
2018-04-25T07:04:26.127Z,61.90
2018-04-25T07:06:55.023Z,61.50
2018-04-25T07:09:23.912Z,60.30
2018-04-25T07:11:52.812Z,59.80
2018-04-25T07:14:21.799Z,59.20
2018-04-25T07:16:50.791Z,58.30
2018-04-25T07:19:19.797Z,58.50
2018-04-25T07:21:48.682Z,58.30
2018-04-25T07:24:16.834Z,58.30
2018-04-25T07:26:44.964Z,57.70
2018-04-25T07:29:13.115Z,58.10
2018-04-25T07:31:41.408Z,58.00
2018-04-25T07:34:09.545Z,57.10
2018-04-25T07:36:38.441Z,57.60
2018-04-25T07:39:06.568Z,57.60
2018-04-25T07:41:34.726Z,57.70
2018-04-25T07:44:02.830Z,57.30
2018-04-25T07:46:31.060Z,57.00
2018-04-25T07:48:59.161Z,57.00
2018-04-25T07:51:27.275Z,56.80
2018-04-25T07:53:55.955Z,57.10
2018-04-25T07:56:24.850Z,57.60
2018-04-25T07:58:53.039Z,57.50
2018-04-25T08:01:21.195Z,56.30
2018-04-25T08:03:49.330Z,56.40
2018-04-25T08:06:17.625Z,56.00
2018-04-25T08:08:46.512Z,55.00
2018-04-25T08:11:15.422Z,54.20
2018-04-25T08:13:55.535Z,54.10
2018-04-25T08:16:35.605Z,54.70
2018-04-25T08:19:26.851Z,53.20
2018-04-25T08:21:54.943Z,53.30
2018-04-25T08:24:23.195Z,53.20
2018-04-25T08:26:51.328Z,52.90
2018-04-25T08:29:19.467Z,51.50
2018-04-25T08:31:47.588Z,51.50
2018-04-25T08:34:16.494Z,51.10
2018-04-25T08:36:45.645Z,50.70
2018-04-25T08:39:13.855Z,50.70
2018-04-25T08:41:42.032Z,49.60
2018-04-25T08:44:11.048Z,49.90
2018-04-25T08:46:39.283Z,49.90
2018-04-25T08:49:08.258Z,47.70
2018-04-25T08:51:37.145Z,48.20
2018-04-25T08:54:05.270Z,48.10
2018-04-25T08:56:33.464Z,46.20
2018-04-25T08:59:02.299Z,45.70
2018-04-25T09:01:30.458Z,45.60
2018-04-25T09:03:59.338Z,45.10
2018-04-25T09:06:28.250Z,43.60
2018-04-25T09:08:56.389Z,43.60
2018-04-25T09:11:24.511Z,43.10
2018-04-25T09:13:52.627Z,42.20
2018-04-25T09:16:20.817Z,41.90
2018-04-25T09:18:49.703Z,41.50
2018-04-25T09:21:17.816Z,41.50
2018-04-25T09:23:46.043Z,41.70
2018-04-25T09:26:14.379Z,40.80
2018-04-25T09:28:43.319Z,41.40
2018-04-25T09:31:12.216Z,41.00
2018-04-25T09:33:41.095Z,41.00
2018-04-25T09:36:09.997Z,41.00
2018-04-25T09:38:38.899Z,41.10
2018-04-25T09:41:07.018Z,41.10
2018-04-25T09:43:36.649Z,42.00
2018-04-25T09:46:05.555Z,42.50
2018-04-25T09:48:34.437Z,41.40
2018-04-25T09:51:04.249Z,39.70
2018-04-25T09:53:33.163Z,39.40
2018-04-25T09:56:01.279Z,39.30
2018-04-25T09:58:29.440Z,40.00
2018-04-25T10:00:57.589Z,39.00
2018-04-25T10:03:25.747Z,39.20
2018-04-25T10:05:53.893Z,39.70
2018-04-25T10:08:22.023Z,39.40
2018-04-25T10:10:50.174Z,37.80
2018-04-25T10:13:18.304Z,38.60
2018-04-25T10:15:47.211Z,38.70
2018-04-25T10:18:16.110Z,38.80
2018-04-25T10:20:44.239Z,38.70
2018-04-25T10:23:13.933Z,37.70
2018-04-25T10:25:42.111Z,37.60
2018-04-25T10:28:10.210Z,38.30
2018-04-25T10:30:39.088Z,37.60
2018-04-25T10:33:07.222Z,37.50
2018-04-25T10:35:35.452Z,38.10
2018-04-25T10:38:04.380Z,38.40
2018-04-25T10:40:32.660Z,38.40
2018-04-25T10:43:00.748Z,38.50
2018-04-25T10:45:28.969Z,38.80
2018-04-25T10:47:57.087Z,38.50
2018-04-25T10:50:25.224Z,38.50
2018-04-25T10:52:53.396Z,37.70
2018-04-25T10:55:21.527Z,38.40
2018-04-25T10:57:49.646Z,38.10
2018-04-25T11:00:17.800Z,38.20
2018-04-25T11:02:45.960Z,38.10
2018-04-25T11:05:14.839Z,38.70
2018-04-25T11:07:43.825Z,38.70
2018-04-25T11:10:12.734Z,38.00
2018-04-25T11:12:40.879Z,38.50
2018-04-25T11:15:09.773Z,38.40
2018-04-25T11:17:37.971Z,37.60
2018-04-25T11:20:06.859Z,37.80
2018-04-25T11:22:35.744Z,37.70
2018-04-25T11:25:04.708Z,37.80
2018-04-25T11:27:32.827Z,37.70
2018-04-25T11:30:00.983Z,37.30
2018-04-25T11:32:29.871Z,38.50
2018-04-25T11:34:58.740Z,38.90
2018-04-25T11:37:27.636Z,39.30
2018-04-25T11:39:56.512Z,38.90
2018-04-25T11:42:24.682Z,38.90
2018-04-25T11:44:52.797Z,37.90
2018-04-25T11:47:21.045Z,36.70
2018-04-25T11:49:49.091Z,36.80
2018-04-25T11:52:17.230Z,36.30
2018-04-25T11:54:45.411Z,35.60
2018-04-25T11:57:13.529Z,35.00
2018-04-25T11:59:42.584Z,35.20
2018-04-25T12:02:11.511Z,36.20
2018-04-25T12:04:40.390Z,34.60
2018-04-25T12:07:09.307Z,35.70
2018-04-25T12:09:38.289Z,34.80
2018-04-25T12:12:07.175Z,35.30
2018-04-25T12:14:36.075Z,35.00
2018-04-25T12:17:04.246Z,35.00
2018-04-25T12:19:33.133Z,36.70
2018-04-25T12:22:02.007Z,34.70
2018-04-25T12:24:30.940Z,32.80
2018-04-25T12:26:59.070Z,32.80
2018-04-25T12:29:27.973Z,33.50
2018-04-25T12:31:56.904Z,32.10
2018-04-25T12:34:25.043Z,32.00
2018-04-25T12:36:53.946Z,32.40
2018-04-25T12:39:22.071Z,32.40
2018-04-25T12:41:50.223Z,31.80
2018-04-25T12:44:18.347Z,31.70
2018-04-25T12:46:46.517Z,29.90
2018-04-25T12:49:15.601Z,31.20
2018-04-25T12:51:44.499Z,31.10
2018-04-25T12:54:13.387Z,30.10
2018-04-25T12:56:42.295Z,31.00
2018-04-25T12:59:10.430Z,31.00
2018-04-25T13:01:38.696Z,31.40
2018-04-25T13:04:06.736Z,31.00
2018-04-25T13:06:34.864Z,30.70
2018-04-25T13:09:03.885Z,31.40
2018-04-25T13:11:32.758Z,30.50
2018-04-25T13:14:00.958Z,30.40
2018-04-25T13:16:29.111Z,29.80
2018-04-25T13:18:57.207Z,30.40
2018-04-25T13:21:25.438Z,31.70
2018-04-25T13:23:53.457Z,32.20
2018-04-25T13:26:21.624Z,32.90
2018-04-25T13:28:49.862Z,32.80
2018-04-25T13:31:18.031Z,33.90
2018-04-25T13:33:46.160Z,33.40
2018-04-25T13:36:14.321Z,33.70
2018-04-25T13:38:42.447Z,33.20
2018-04-25T13:41:10.643Z,33.40
2018-04-25T13:43:38.794Z,33.10
2018-04-25T13:46:07.685Z,31.60
2018-04-25T13:48:35.804Z,31.50
2018-04-25T13:51:04.568Z,31.80
2018-04-25T13:53:32.708Z,31.90
2018-04-25T13:56:00.827Z,32.60
2018-04-25T13:58:29.031Z,33.30
2018-04-25T14:00:57.941Z,33.20
2018-04-25T14:03:26.124Z,33.10
2018-04-25T14:05:54.248Z,32.60
2018-04-25T14:08:22.399Z,32.00
2018-04-25T14:10:50.518Z,30.80
2018-04-25T14:13:19.539Z,29.90
2018-04-25T14:15:48.390Z,29.70
2018-04-25T14:18:17.317Z,30.20
2018-04-25T14:20:45.487Z,30.10
2018-04-25T14:23:13.604Z,29.70
2018-04-25T14:25:41.753Z,28.30
2018-04-25T14:28:09.918Z,27.70
2018-04-25T14:30:38.036Z,27.00
2018-04-25T14:33:06.956Z,26.00
2018-04-25T14:35:35.073Z,25.90
2018-04-25T14:38:03.216Z,25.60
2018-04-25T14:40:31.337Z,25.30
2018-04-25T14:42:59.477Z,25.50
2018-04-25T14:45:27.615Z,25.70
2018-04-25T14:47:55.742Z,26.70
2018-04-25T14:50:23.895Z,26.60
2018-04-25T14:52:52.030Z,26.20
2018-04-25T14:55:20.908Z,25.90
2018-04-25T14:57:49.044Z,25.80
2018-04-25T15:00:17.175Z,25.60
2018-04-25T15:02:45.325Z,26.80
2018-04-25T15:05:14.581Z,27.50
2018-04-25T15:07:42.694Z,27.80
2018-04-25T15:10:10.839Z,27.50
2018-04-25T15:12:38.987Z,26.50
2018-04-25T15:15:07.214Z,26.90
2018-04-25T15:17:36.195Z,27.30
2018-04-25T15:20:05.178Z,27.10
2018-04-25T15:22:33.233Z,27.00
2018-04-25T15:25:01.564Z,26.00
2018-04-25T15:27:29.705Z,25.10
2018-04-25T15:29:58.602Z,23.90
2018-04-25T15:32:27.509Z,24.00
2018-04-25T15:34:55.631Z,23.90
2018-04-25T15:37:23.834Z,23.30
2018-04-25T15:39:51.987Z,23.50
2018-04-25T15:42:20.099Z,24.50
2018-04-25T15:44:48.247Z,25.60
2018-04-25T15:47:17.118Z,26.40
2018-04-25T15:49:46.031Z,26.20
2018-04-25T15:52:14.162Z,26.10
2018-04-25T15:54:42.287Z,25.40
2018-04-25T15:57:10.470Z,25.10
2018-04-25T15:59:38.601Z,25.00
2018-04-25T16:02:06.781Z,24.90
2018-04-25T16:04:34.925Z,24.50
2018-04-25T16:07:03.174Z,24.80
2018-04-25T16:09:31.325Z,26.20
2018-04-25T16:11:59.462Z,26.00
2018-04-25T16:14:27.647Z,26.10
2018-04-25T16:16:56.536Z,28.60
2018-04-25T16:19:25.486Z,29.80
2018-04-25T16:21:53.734Z,29.70
2018-04-25T16:24:21.879Z,30.90
2018-04-25T16:26:51.308Z,32.40
2018-04-25T16:29:19.462Z,32.40
2018-04-25T16:31:48.368Z,34.00
2018-04-25T16:34:16.519Z,34.00
2018-04-25T16:36:44.680Z,34.70
2018-04-25T16:39:13.595Z,35.60
2018-04-25T16:41:41.722Z,35.50
2018-04-25T16:44:09.885Z,35.80
2018-04-25T16:46:37.991Z,35.80
2018-04-25T16:49:06.158Z,36.50
2018-04-25T16:51:35.099Z,36.90
2018-04-25T16:54:03.238Z,36.80
2018-04-25T16:56:31.374Z,37.40
2018-04-25T16:59:00.422Z,37.70
2018-04-25T17:01:28.564Z,37.70
2018-04-25T17:03:56.721Z,38.10
2018-04-25T17:06:25.647Z,38.40
2018-04-25T17:08:53.790Z,38.40
2018-04-25T17:11:22.714Z,38.50
2018-04-25T17:13:50.881Z,38.50
2018-04-25T17:16:19.086Z,38.40
2018-04-25T17:18:47.314Z,37.90
2018-04-25T17:21:15.457Z,38.10
2018-04-25T17:23:44.382Z,38.20
2018-04-25T17:26:12.539Z,38.10
2018-04-25T17:28:41.523Z,38.70
2018-04-25T17:31:09.584Z,38.60
2018-04-25T17:33:37.785Z,39.10
2018-04-25T17:36:05.944Z,38.80
2018-04-25T17:38:34.826Z,39.80
2018-04-25T17:41:03.825Z,42.60
2018-04-25T17:43:31.995Z,42.70
2018-04-25T17:46:00.154Z,43.10
2018-04-25T17:48:29.101Z,43.50
2018-04-25T17:50:57.216Z,43.40
2018-04-25T17:53:26.135Z,43.70
2018-04-25T17:55:54.324Z,43.70
2018-04-25T17:58:22.551Z,43.80
2018-04-25T18:00:51.460Z,43.80
2018-04-25T18:03:20.576Z,44.30
2018-04-25T18:05:48.777Z,44.30
2018-04-25T18:08:17.027Z,44.60
2018-04-25T18:10:45.147Z,44.90
2018-04-25T18:13:14.183Z,45.60
2018-04-25T18:15:42.339Z,45.50
2018-04-25T18:18:10.528Z,45.80
2018-04-25T18:20:38.674Z,46.00
2018-04-25T18:23:07.574Z,46.30
2018-04-25T18:25:35.712Z,46.20
2018-04-25T18:28:04.613Z,46.90
2018-04-25T18:30:33.578Z,47.50
2018-04-25T18:33:01.709Z,47.30
2018-04-25T18:35:29.983Z,47.60
2018-04-25T18:37:58.976Z,48.20
2018-04-25T18:40:27.125Z,48.10
2018-04-25T18:42:55.283Z,48.40
2018-04-25T18:45:24.309Z,49.10
2018-04-25T18:47:52.436Z,49.00
2018-04-25T18:50:21.347Z,49.90
2018-04-25T18:52:50.236Z,49.60
2018-04-25T18:55:19.170Z,49.70
2018-04-25T18:57:47.343Z,49.70
2018-04-25T19:00:15.528Z,50.10
2018-04-25T19:02:43.770Z,50.40
2018-04-25T19:05:11.923Z,50.80
2018-04-25T19:07:40.844Z,50.90
2018-04-25T19:10:08.985Z,50.80
2018-04-25T19:12:37.174Z,51.30
2018-04-25T19:15:05.316Z,51.20
2018-04-25T19:17:34.211Z,51.10
2018-04-25T19:20:02.374Z,51.00
2018-04-25T19:22:30.530Z,50.90
2018-04-25T19:24:58.753Z,51.30
2018-04-25T19:27:26.931Z,51.20
2018-04-25T19:29:55.098Z,51.40
2018-04-25T19:32:23.159Z,51.40
2018-04-25T19:34:51.323Z,51.80
2018-04-25T19:37:19.518Z,52.00
2018-04-25T19:39:47.716Z,52.10
2018-04-25T19:42:15.878Z,52.20
2018-04-25T19:44:44.046Z,52.40
2018-04-25T19:47:12.495Z,52.40
2018-04-25T19:49:40.637Z,52.50
2018-04-25T19:52:08.792Z,52.40
2018-04-25T19:54:36.969Z,52.60
2018-04-25T19:57:05.120Z,52.20
2018-04-25T19:59:33.273Z,52.50
2018-04-25T20:02:01.399Z,52.50
2018-04-25T20:04:30.301Z,52.40
2018-04-25T20:06:59.310Z,52.70
2018-04-25T20:09:27.440Z,52.70
2018-04-25T20:11:56.094Z,52.70
2018-04-25T20:14:24.256Z,52.60
2018-04-25T20:16:52.388Z,52.60
2018-04-25T20:19:21.410Z,52.80
2018-04-25T20:21:50.305Z,52.90
2018-04-25T20:24:18.442Z,53.50
2018-04-25T20:26:47.383Z,53.20
2018-04-25T20:29:15.515Z,53.20
2018-04-25T20:31:44.434Z,53.70
2018-04-25T20:34:12.587Z,53.70
2018-04-25T20:36:40.730Z,53.60
2018-04-25T20:39:09.643Z,53.50
2018-04-25T20:41:38.565Z,54.00
2018-04-25T20:44:06.683Z,53.90
2018-04-25T20:46:35.598Z,54.10
2018-04-25T20:49:03.738Z,54.10
2018-04-25T20:51:31.881Z,54.40
2018-04-25T20:54:00.131Z,54.40
2018-04-25T20:56:28.281Z,54.60
2018-04-25T20:58:56.419Z,55.00
2018-04-25T21:01:24.611Z,55.40
2018-04-25T21:03:53.553Z,55.10
2018-04-25T21:06:21.679Z,55.10
2018-04-25T21:08:49.809Z,56.80
2018-04-25T21:11:18.430Z,58.80
2018-04-25T21:13:46.569Z,61.10
2018-04-25T21:16:14.929Z,62.80
2018-04-25T21:18:43.157Z,63.20
2018-04-25T21:21:12.052Z,66.50
2018-04-25T21:23:40.194Z,66.20
2018-04-25T21:26:09.128Z,64.80
2018-04-25T21:28:37.278Z,64.70
2018-04-25T21:31:06.277Z,66.60
2018-04-25T21:33:34.427Z,66.40
2018-04-25T21:36:03.337Z,68.30
2018-04-25T21:38:31.470Z,68.20
2018-04-25T21:40:59.656Z,69.40
2018-04-25T21:43:28.647Z,71.10
2018-04-25T21:45:57.669Z,72.20
2018-04-25T21:48:25.824Z,72.00
2018-04-25T21:50:54.749Z,71.50
2018-04-25T21:53:22.858Z,71.30
2018-04-25T21:55:51.000Z,71.60
2018-04-25T21:58:19.179Z,72.00
2018-04-25T22:00:47.315Z,72.50
2018-04-25T22:03:15.444Z,72.80
2018-04-25T22:05:43.607Z,73.10
2018-04-25T22:08:11.722Z,72.40
2018-04-25T22:10:39.839Z,72.60
2018-04-25T22:13:07.980Z,72.20
2018-04-25T22:15:36.124Z,72.60
2018-04-25T22:18:05.036Z,73.90
2018-04-25T22:20:33.196Z,73.80
2018-04-25T22:23:02.084Z,75.40
2018-04-25T22:25:30.207Z,75.40
2018-04-25T22:27:58.345Z,76.00
2018-04-25T22:30:26.478Z,77.10
2018-04-25T22:32:54.662Z,77.00
2018-04-25T22:35:23.552Z,77.30
2018-04-25T22:37:52.455Z,77.40
2018-04-25T22:40:20.603Z,77.30
2018-04-25T22:42:48.727Z,77.80
2018-04-25T22:45:16.969Z,77.80
2018-04-25T22:47:45.119Z,78.30
2018-04-25T22:50:14.116Z,79.40
2018-04-25T22:52:43.139Z,80.30
2018-04-25T22:55:11.244Z,80.30
2018-04-25T22:57:39.376Z,80.90
2018-04-25T23:00:07.524Z,80.30
2018-04-25T23:02:36.417Z,81.20
2018-04-25T23:05:05.330Z,81.00
2018-04-25T23:07:33.475Z,80.90
2018-04-25T23:10:03.905Z,80.70
2018-04-25T23:12:32.806Z,81.30
2018-04-25T23:15:02.493Z,81.40
2018-04-25T23:17:31.480Z,81.00
2018-04-25T23:20:00.370Z,80.20
2018-04-25T23:22:29.336Z,80.20
2018-04-25T23:24:57.497Z,80.20
2018-04-25T23:27:25.606Z,80.00
2018-04-25T23:29:54.598Z,78.70
2018-04-25T23:32:23.587Z,77.90
2018-04-25T23:34:52.585Z,78.40
2018-04-25T23:37:21.478Z,79.10
2018-04-25T23:39:50.374Z,79.00
2018-04-25T23:42:18.533Z,78.90
2018-04-25T23:44:46.720Z,79.70
2018-04-25T23:47:15.633Z,79.90
2018-04-25T23:49:43.728Z,79.80
2018-04-25T23:52:11.868Z,80.40
2018-04-25T23:54:39.972Z,79.90
2018-04-25T23:57:08.184Z,80.40
2018-04-25T23:59:37.081Z,81.40
